sensor_id;sensor_type;location;lat;lon;timestamp;pressure;altitude;pressure_sealevel;temperature;humidity
83664;BME280;73634;47.068;15.426;2024-01-15T00:01:00;96148.97;;;-4.91;86.20
83664;BME280;73634;47.068;15.426;2024-01-15T00:03:25;96146.78;;;-5.06;87.03
83664;BME280;73634;47.068;15.426;2024-01-15T00:05:50;96132.97;;;-5.10;88.15
83664;BME280;73634;47.068;15.426;2024-01-15T00:08:16;96129.28;;;-5.14;87.89
83664;BME280;73634;47.068;15.426;2024-01-15T00:10:41;96134.28;;;-5.26;88.30
83664;BME280;73634;47.068;15.426;2024-01-15T00:13:06;96128.56;;;-5.40;88.46
83664;BME280;73634;47.068;15.426;2024-01-15T00:15:32;96124.63;;;-5.35;88.57
83664;BME280;73634;47.068;15.426;2024-01-15T00:17:57;96125.03;;;-5.39;88.45
83664;BME280;73634;47.068;15.426;2024-01-15T00:23:10;96125.97;;;-5.58;89.01
83664;BME280;73634;47.068;15.426;2024-01-15T00:25:35;96121.78;;;-5.46;89.15
83664;BME280;73634;47.068;15.426;2024-01-15T00:28:00;96119.41;;;-5.41;89.15
83664;BME280;73634;47.068;15.426;2024-01-15T00:30:26;96109.69;;;-5.44;88.86
83664;BME280;73634;47.068;15.426;2024-01-15T00:32:51;96110.09;;;-5.47;88.90
83664;BME280;73634;47.068;15.426;2024-01-15T00:35:17;96111.25;;;-5.43;88.25
83664;BME280;73634;47.068;15.426;2024-01-15T00:37:42;96100.13;;;-5.42;88.12
83664;BME280;73634;47.068;15.426;2024-01-15T00:40:08;96098.56;;;-5.43;88.32
83664;BME280;73634;47.068;15.426;2024-01-15T00:42:34;96091.38;;;-5.46;88.52
83664;BME280;73634;47.068;15.426;2024-01-15T00:47:36;96084.13;;;-5.60;88.45
83664;BME280;73634;47.068;15.426;2024-01-15T00:50:01;96076.66;;;-5.55;89.02
83664;BME280;73634;47.068;15.426;2024-01-15T00:52:27;96079.94;;;-5.55;88.35
83664;BME280;73634;47.068;15.426;2024-01-15T00:54:52;96080.88;;;-5.49;88.90
83664;BME280;73634;47.068;15.426;2024-01-15T00:57:17;96078.09;;;-5.41;89.00
83664;BME280;73634;47.068;15.426;2024-01-15T00:59:44;96084.34;;;-5.44;89.05
83664;BME280;73634;47.068;15.426;2024-01-15T01:02:10;96081.59;;;-5.42;88.44
83664;BME280;73634;47.068;15.426;2024-01-15T01:04:35;96064.63;;;-5.42;88.93
83664;BME280;73634;47.068;15.426;2024-01-15T01:07:00;96047.03;;;-5.37;88.22
83664;BME280;73634;47.068;15.426;2024-01-15T01:13:01;96028.38;;;-5.42;88.46
83664;BME280;73634;47.068;15.426;2024-01-15T01:15:27;96028.22;;;-5.47;87.90
83664;BME280;73634;47.068;15.426;2024-01-15T01:17:52;96030.91;;;-5.42;87.76
83664;BME280;73634;47.068;15.426;2024-01-15T01:20:18;96031.34;;;-5.45;87.54
83664;BME280;73634;47.068;15.426;2024-01-15T01:22:43;96037.94;;;-5.44;87.38
83664;BME280;73634;47.068;15.426;2024-01-15T01:25:09;96026.06;;;-5.44;87.94
83664;BME280;73634;47.068;15.426;2024-01-15T01:27:35;96020.06;;;-5.49;87.38
83664;BME280;73634;47.068;15.426;2024-01-15T01:30:00;96024.94;;;-5.48;88.13
83664;BME280;73634;47.068;15.426;2024-01-15T01:32:26;96023.09;;;-5.41;87.66
83664;BME280;73634;47.068;15.426;2024-01-15T01:37:12;96012.03;;;-5.46;88.03
83664;BME280;73634;47.068;15.426;2024-01-15T01:39:39;96015.56;;;-5.47;88.03
83664;BME280;73634;47.068;15.426;2024-01-15T01:42:04;95990.00;;;-5.46;87.71
83664;BME280;73634;47.068;15.426;2024-01-15T01:44:30;95998.59;;;-5.47;88.26
83664;BME280;73634;47.068;15.426;2024-01-15T01:46:56;96001.91;;;-5.64;87.51
83664;BME280;73634;47.068;15.426;2024-01-15T01:49:23;95992.38;;;-5.87;88.11
83664;BME280;73634;47.068;15.426;2024-01-15T01:51:48;95986.63;;;-5.94;88.66
83664;BME280;73634;47.068;15.426;2024-01-15T01:54:14;95988.16;;;-5.93;89.12
83664;BME280;73634;47.068;15.426;2024-01-15T01:56:41;95978.72;;;-5.86;89.68
83664;BME280;73634;47.068;15.426;2024-01-15T02:01:22;95954.53;;;-5.82;90.22
83664;BME280;73634;47.068;15.426;2024-01-15T02:03:48;95941.75;;;-5.69;90.74
83664;BME280;73634;47.068;15.426;2024-01-15T02:06:13;95956.09;;;-5.63;90.85
83664;BME280;73634;47.068;15.426;2024-01-15T02:08:39;95952.44;;;-5.67;89.90
83664;BME280;73634;47.068;15.426;2024-01-15T02:11:04;95960.59;;;-5.65;89.33
83664;BME280;73634;47.068;15.426;2024-01-15T02:13:30;95948.94;;;-5.66;89.00
83664;BME280;73634;47.068;15.426;2024-01-15T02:15:55;95952.59;;;-5.62;88.11
83664;BME280;73634;47.068;15.426;2024-01-15T02:18:21;95941.78;;;-5.57;86.90
83664;BME280;73634;47.068;15.426;2024-01-15T02:20:46;95939.06;;;-5.56;87.23
83664;BME280;73634;47.068;15.426;2024-01-15T02:23:14;95945.03;;;-5.50;86.83
83664;BME280;73634;47.068;15.426;2024-01-15T02:28:48;95954.75;;;-5.47;87.08
83664;BME280;73634;47.068;15.426;2024-01-15T02:31:13;95938.56;;;-5.46;87.36
83664;BME280;73634;47.068;15.426;2024-01-15T02:33:38;95948.69;;;-5.46;87.22
83664;BME280;73634;47.068;15.426;2024-01-15T02:36:04;95939.03;;;-5.38;86.86
83664;BME280;73634;47.068;15.426;2024-01-15T02:38:29;95944.69;;;-5.35;86.82
83664;BME280;73634;47.068;15.426;2024-01-15T02:40:55;95930.53;;;-5.43;86.59
83664;BME280;73634;47.068;15.426;2024-01-15T02:43:20;95921.53;;;-5.57;87.36
83664;BME280;73634;47.068;15.426;2024-01-15T02:45:45;95920.75;;;-5.58;87.58
83664;BME280;73634;47.068;15.426;2024-01-15T02:48:12;95916.03;;;-5.54;88.14
83664;BME280;73634;47.068;15.426;2024-01-15T02:53:36;95914.06;;;-5.52;87.05
83664;BME280;73634;47.068;15.426;2024-01-15T02:56:02;95901.75;;;-5.49;86.99
83664;BME280;73634;47.068;15.426;2024-01-15T02:58:27;95899.84;;;-5.53;87.73
83664;BME280;73634;47.068;15.426;2024-01-15T03:00:53;95900.41;;;-5.51;88.29
83664;BME280;73634;47.068;15.426;2024-01-15T03:03:18;95899.56;;;-5.45;88.65
83664;BME280;73634;47.068;15.426;2024-01-15T03:05:43;95891.59;;;-5.49;88.80
83664;BME280;73634;47.068;15.426;2024-01-15T03:08:09;95901.88;;;-5.44;88.83
83664;BME280;73634;47.068;15.426;2024-01-15T03:10:34;95912.78;;;-5.43;89.27
83664;BME280;73634;47.068;15.426;2024-01-15T03:12:59;95911.38;;;-5.39;89.05
83664;BME280;73634;47.068;15.426;2024-01-15T03:15:25;95912.50;;;-5.53;89.18
83664;BME280;73634;47.068;15.426;2024-01-15T03:20:14;95898.00;;;-5.46;89.53
83664;BME280;73634;47.068;15.426;2024-01-15T03:22:40;95901.47;;;-5.41;89.26
83664;BME280;73634;47.068;15.426;2024-01-15T03:25:06;95890.53;;;-5.41;89.28
83664;BME280;73634;47.068;15.426;2024-01-15T03:27:32;95889.13;;;-5.37;88.54
83664;BME280;73634;47.068;15.426;2024-01-15T03:29:57;95886.53;;;-5.30;88.62
83664;BME280;73634;47.068;15.426;2024-01-15T03:32:22;95883.56;;;-5.16;88.46
83664;BME280;73634;47.068;15.426;2024-01-15T03:34:48;95875.41;;;-5.18;88.11
83664;BME280;73634;47.068;15.426;2024-01-15T03:37:13;95866.25;;;-5.19;87.88
83664;BME280;73634;47.068;15.426;2024-01-15T03:39:39;95864.63;;;-5.13;88.08
83664;BME280;73634;47.068;15.426;2024-01-15T03:42:04;95862.94;;;-5.19;87.65
83664;BME280;73634;47.068;15.426;2024-01-15T03:46:10;95866.97;;;-5.00;87.19
83664;BME280;73634;47.068;15.426;2024-01-15T03:48:36;95867.84;;;-5.06;87.27
83664;BME280;73634;47.068;15.426;2024-01-15T03:51:01;95862.78;;;-5.06;87.31
83664;BME280;73634;47.068;15.426;2024-01-15T03:53:26;95856.16;;;-5.07;86.85
83664;BME280;73634;47.068;15.426;2024-01-15T03:55:52;95850.78;;;-4.99;86.80
83664;BME280;73634;47.068;15.426;2024-01-15T03:58:17;95848.25;;;-4.99;86.88
83664;BME280;73634;47.068;15.426;2024-01-15T04:00:43;95845.91;;;-5.00;86.94
83664;BME280;73634;47.068;15.426;2024-01-15T04:03:08;95841.72;;;-5.07;87.33
83664;BME280;73634;47.068;15.426;2024-01-15T04:05:34;95842.25;;;-5.16;87.39
83664;BME280;73634;47.068;15.426;2024-01-15T04:10:36;95851.34;;;-5.39;88.14
83664;BME280;73634;47.068;15.426;2024-01-15T04:13:02;95865.00;;;-5.58;89.37
83664;BME280;73634;47.068;15.426;2024-01-15T04:15:28;95872.31;;;-5.80;89.38
83664;BME280;73634;47.068;15.426;2024-01-15T04:17:54;95863.28;;;-5.76;89.86
83664;BME280;73634;47.068;15.426;2024-01-15T04:20:19;95850.69;;;-5.64;89.39
83664;BME280;73634;47.068;15.426;2024-01-15T04:22:44;95847.75;;;-5.49;88.45
83664;BME280;73634;47.068;15.426;2024-01-15T04:25:10;95851.63;;;-5.47;88.09
83664;BME280;73634;47.068;15.426;2024-01-15T04:27:35;95862.19;;;-5.50;87.98
83664;BME280;73634;47.068;15.426;2024-01-15T04:30:00;95850.16;;;-5.54;88.10
83664;BME280;73634;47.068;15.426;2024-01-15T04:35:03;95848.50;;;-5.30;87.65
83664;BME280;73634;47.068;15.426;2024-01-15T04:37:28;95848.97;;;-5.22;87.27
83664;BME280;73634;47.068;15.426;2024-01-15T04:39:53;95854.34;;;-5.18;87.06
83664;BME280;73634;47.068;15.426;2024-01-15T04:42:21;95864.19;;;-5.22;86.90
83664;BME280;73634;47.068;15.426;2024-01-15T04:44:46;95861.66;;;-5.22;86.63
83664;BME280;73634;47.068;15.426;2024-01-15T04:47:11;95858.66;;;-5.19;86.69
83664;BME280;73634;47.068;15.426;2024-01-15T04:49:37;95861.97;;;-5.18;86.63
83664;BME280;73634;47.068;15.426;2024-01-15T04:52:02;95860.41;;;-5.19;86.56
83664;BME280;73634;47.068;15.426;2024-01-15T04:54:27;95852.63;;;-5.06;86.26
83664;BME280;73634;47.068;15.426;2024-01-15T04:59:25;95858.72;;;-4.95;85.51
83664;BME280;73634;47.068;15.426;2024-01-15T05:01:50;95858.94;;;-4.97;85.78
83664;BME280;73634;47.068;15.426;2024-01-15T05:04:16;95862.38;;;-4.91;86.01
83664;BME280;73634;47.068;15.426;2024-01-15T05:06:41;95864.69;;;-4.90;85.63
83664;BME280;73634;47.068;15.426;2024-01-15T05:09:06;95859.19;;;-4.87;85.10
83664;BME280;73634;47.068;15.426;2024-01-15T05:11:32;95872.41;;;-4.96;85.97
83664;BME280;73634;47.068;15.426;2024-01-15T05:13:57;95865.00;;;-4.98;85.85
83664;BME280;73634;47.068;15.426;2024-01-15T05:16:22;95874.06;;;-4.90;86.55
83664;BME280;73634;47.068;15.426;2024-01-15T05:18:48;95877.81;;;-4.93;86.05
83664;BME280;73634;47.068;15.426;2024-01-15T05:24:10;95874.69;;;-5.07;86.21
83664;BME280;73634;47.068;15.426;2024-01-15T05:26:36;95866.25;;;-5.19;86.33
83664;BME280;73634;47.068;15.426;2024-01-15T05:29:01;95877.28;;;-5.25;86.63
83664;BME280;73634;47.068;15.426;2024-01-15T05:31:27;95872.31;;;-5.31;86.72
83664;BME280;73634;47.068;15.426;2024-01-15T05:33:52;95879.00;;;-5.37;86.92
83664;BME280;73634;47.068;15.426;2024-01-15T05:36:18;95882.38;;;-5.43;87.20
83664;BME280;73634;47.068;15.426;2024-01-15T05:38:44;95883.03;;;-5.48;87.82
83664;BME280;73634;47.068;15.426;2024-01-15T05:41:09;95887.88;;;-5.46;87.34
83664;BME280;73634;47.068;15.426;2024-01-15T05:46:22;95876.59;;;-5.32;87.26
83664;BME280;73634;47.068;15.426;2024-01-15T05:48:47;95865.38;;;-5.24;86.56
83664;BME280;73634;47.068;15.426;2024-01-15T05:51:13;95873.97;;;-5.25;86.42
83664;BME280;73634;47.068;15.426;2024-01-15T05:53:38;95878.00;;;-5.36;85.86
83664;BME280;73634;47.068;15.426;2024-01-15T05:56:05;95882.09;;;-5.35;86.06
83664;BME280;73634;47.068;15.426;2024-01-15T05:58:31;95876.81;;;-5.33;85.59
83664;BME280;73634;47.068;15.426;2024-01-15T06:00:56;95879.91;;;-5.31;85.41
83664;BME280;73634;47.068;15.426;2024-01-15T06:03:21;95899.75;;;-5.28;86.14
83664;BME280;73634;47.068;15.426;2024-01-15T06:05:47;95891.94;;;-5.27;86.55
83664;BME280;73634;47.068;15.426;2024-01-15T06:08:12;95888.63;;;-5.27;86.05
83664;BME280;73634;47.068;15.426;2024-01-15T06:13:18;95886.31;;;-5.29;86.25
83664;BME280;73634;47.068;15.426;2024-01-15T06:15:44;95881.44;;;-5.30;86.17
83664;BME280;73634;47.068;15.426;2024-01-15T06:18:09;95879.03;;;-5.25;85.89
83664;BME280;73634;47.068;15.426;2024-01-15T06:20:35;95887.44;;;-5.25;86.27
83664;BME280;73634;47.068;15.426;2024-01-15T06:23:00;95880.59;;;-5.24;86.71
83664;BME280;73634;47.068;15.426;2024-01-15T06:25:25;95882.56;;;-5.26;86.09
83664;BME280;73634;47.068;15.426;2024-01-15T06:27:51;95887.50;;;-5.31;87.03
83664;BME280;73634;47.068;15.426;2024-01-15T06:30:16;95892.50;;;-5.25;87.42
83664;BME280;73634;47.068;15.426;2024-01-15T06:32:41;95881.16;;;-5.22;87.34
83664;BME280;73634;47.068;15.426;2024-01-15T06:35:07;95888.84;;;-5.17;87.08
83664;BME280;73634;47.068;15.426;2024-01-15T06:37:32;95889.31;;;-5.20;86.30
83664;BME280;73634;47.068;15.426;2024-01-15T06:41:00;95904.81;;;-5.28;86.34
83664;BME280;73634;47.068;15.426;2024-01-15T06:43:26;95897.56;;;-5.25;86.00
83664;BME280;73634;47.068;15.426;2024-01-15T06:45:51;95903.50;;;-5.31;86.18
83664;BME280;73634;47.068;15.426;2024-01-15T06:48:16;95917.00;;;-5.37;87.28
83664;BME280;73634;47.068;15.426;2024-01-15T06:50:43;95920.47;;;-5.31;87.10
83664;BME280;73634;47.068;15.426;2024-01-15T06:53:08;95926.84;;;-5.29;87.49
83664;BME280;73634;47.068;15.426;2024-01-15T06:55:34;95926.31;;;-5.31;87.20
83664;BME280;73634;47.068;15.426;2024-01-15T06:57:59;95927.63;;;-5.28;87.12
83664;BME280;73634;47.068;15.426;2024-01-15T07:00:25;95935.59;;;-5.25;86.91
83664;BME280;73634;47.068;15.426;2024-01-15T07:04:56;95940.56;;;-5.18;86.93
83664;BME280;73634;47.068;15.426;2024-01-15T07:07:21;95952.34;;;-4.94;86.70
83664;BME280;73634;47.068;15.426;2024-01-15T07:09:46;95953.69;;;-4.91;86.42
83664;BME280;73634;47.068;15.426;2024-01-15T07:12:12;95959.03;;;-4.99;85.96
83664;BME280;73634;47.068;15.426;2024-01-15T07:14:37;95954.97;;;-5.00;86.00
83664;BME280;73634;47.068;15.426;2024-01-15T07:17:02;95940.88;;;-4.96;85.78
83664;BME280;73634;47.068;15.426;2024-01-15T07:19:28;95935.16;;;-4.92;85.25
83664;BME280;73634;47.068;15.426;2024-01-15T07:21:53;95952.44;;;-5.00;85.67
83664;BME280;73634;47.068;15.426;2024-01-15T07:24:19;95961.84;;;-4.89;86.46
83664;BME280;73634;47.068;15.426;2024-01-15T07:29:28;95956.91;;;-4.19;84.29
83664;BME280;73634;47.068;15.426;2024-01-15T07:31:54;95959.88;;;-3.99;82.02
83664;BME280;73634;47.068;15.426;2024-01-15T07:34:19;95971.53;;;-3.40;80.13
83664;BME280;73634;47.068;15.426;2024-01-15T07:36:45;95975.69;;;-2.82;77.12
83664;BME280;73634;47.068;15.426;2024-01-15T07:39:10;95979.91;;;-2.42;76.31
83664;BME280;73634;47.068;15.426;2024-01-15T07:41:36;95975.06;;;-1.72;73.31
83664;BME280;73634;47.068;15.426;2024-01-15T07:44:02;95983.09;;;-1.19;71.23
83664;BME280;73634;47.068;15.426;2024-01-15T07:46:27;95988.84;;;-1.51;70.45
83664;BME280;73634;47.068;15.426;2024-01-15T07:48:53;95993.53;;;-1.64;70.89
83664;BME280;73634;47.068;15.426;2024-01-15T07:54:01;96007.06;;;-0.77;68.39
83664;BME280;73634;47.068;15.426;2024-01-15T07:56:26;95998.19;;;-0.69;65.46
83664;BME280;73634;47.068;15.426;2024-01-15T07:58:52;96003.28;;;-0.15;65.42
83664;BME280;73634;47.068;15.426;2024-01-15T08:01:18;95998.16;;;0.64;62.25
83664;BME280;73634;47.068;15.426;2024-01-15T08:03:43;95996.56;;;1.20;60.02
83664;BME280;73634;47.068;15.426;2024-01-15T08:06:08;95991.44;;;1.15;60.28
83664;BME280;73634;47.068;15.426;2024-01-15T08:08:36;95990.91;;;0.51;62.24
83664;BME280;73634;47.068;15.426;2024-01-15T08:11:02;96003.25;;;-0.74;64.01
83664;BME280;73634;47.068;15.426;2024-01-15T08:13:27;96009.72;;;-1.54;68.97
83664;BME280;73634;47.068;15.426;2024-01-15T08:18:28;95997.56;;;1.09;59.96
83664;BME280;73634;47.068;15.426;2024-01-15T08:20:53;95999.00;;;1.98;57.57
83664;BME280;73634;47.068;15.426;2024-01-15T08:23:19;95987.47;;;4.13;50.67
83664;BME280;73634;47.068;15.426;2024-01-15T08:25:45;95984.97;;;3.29;53.44
83664;BME280;73634;47.068;15.426;2024-01-15T08:28:10;95991.69;;;2.61;53.93
83664;BME280;73634;47.068;15.426;2024-01-15T08:30:35;95990.72;;;3.94;50.81
83664;BME280;73634;47.068;15.426;2024-01-15T08:33:04;95986.47;;;5.09;47.70
83664;BME280;73634;47.068;15.426;2024-01-15T08:35:29;95987.69;;;7.07;43.37
83664;BME280;73634;47.068;15.426;2024-01-15T08:37:54;95974.38;;;8.47;38.88
83664;BME280;73634;47.068;15.426;2024-01-15T08:42:26;95990.25;;;8.54;38.01
83664;BME280;73634;47.068;15.426;2024-01-15T08:44:51;95992.94;;;8.72;37.90
83664;BME280;73634;47.068;15.426;2024-01-15T08:47:17;95991.03;;;6.93;40.73
83664;BME280;73634;47.068;15.426;2024-01-15T08:49:42;95991.41;;;6.59;42.24
83664;BME280;73634;47.068;15.426;2024-01-15T08:52:09;95989.88;;;7.49;40.31
83664;BME280;73634;47.068;15.426;2024-01-15T08:54:35;96002.00;;;7.62;40.26
83664;BME280;73634;47.068;15.426;2024-01-15T08:57:00;96001.16;;;9.22;36.83
83664;BME280;73634;47.068;15.426;2024-01-15T08:59:26;95993.06;;;10.35;34.07
83664;BME280;73634;47.068;15.426;2024-01-15T09:01:54;95999.38;;;9.48;35.08
83664;BME280;73634;47.068;15.426;2024-01-15T09:07:19;96001.22;;;11.52;32.43
83664;BME280;73634;47.068;15.426;2024-01-15T09:09:45;95993.25;;;11.48;31.53
83664;BME280;73634;47.068;15.426;2024-01-15T09:12:10;95988.47;;;13.19;28.03
83664;BME280;73634;47.068;15.426;2024-01-15T09:14:35;95978.16;;;13.90;27.22
83664;BME280;73634;47.068;15.426;2024-01-15T09:17:01;95983.16;;;15.02;25.63
83664;BME280;73634;47.068;15.426;2024-01-15T09:19:26;95978.69;;;13.96;27.00
83664;BME280;73634;47.068;15.426;2024-01-15T09:21:52;95970.81;;;14.87;25.84
83664;BME280;73634;47.068;15.426;2024-01-15T09:24:17;95967.63;;;15.28;24.96
83664;BME280;73634;47.068;15.426;2024-01-15T09:26:43;95973.53;;;15.25;25.45
83664;BME280;73634;47.068;15.426;2024-01-15T09:32:00;95960.00;;;16.39;24.67
83664;BME280;73634;47.068;15.426;2024-01-15T09:34:28;95957.69;;;17.99;22.01
83664;BME280;73634;47.068;15.426;2024-01-15T09:36:53;95949.91;;;19.64;19.89
83664;BME280;73634;47.068;15.426;2024-01-15T09:39:18;95944.44;;;20.44;19.12
83664;BME280;73634;47.068;15.426;2024-01-15T09:41:44;95944.50;;;18.74;20.65
83664;BME280;73634;47.068;15.426;2024-01-15T09:44:10;95950.47;;;18.26;21.11
83664;BME280;73634;47.068;15.426;2024-01-15T09:46:36;95950.31;;;16.20;23.20
83664;BME280;73634;47.068;15.426;2024-01-15T09:49:02;95948.91;;;17.25;21.97
83664;BME280;73634;47.068;15.426;2024-01-15T09:51:31;95952.22;;;17.48;22.06
83664;BME280;73634;47.068;15.426;2024-01-15T09:55:46;95943.88;;;18.06;21.42
83664;BME280;73634;47.068;15.426;2024-01-15T09:58:15;95938.72;;;20.13;19.09
83664;BME280;73634;47.068;15.426;2024-01-15T10:00:40;95933.72;;;19.76;19.73
83664;BME280;73634;47.068;15.426;2024-01-15T10:03:09;95927.81;;;20.33;18.95
83664;BME280;73634;47.068;15.426;2024-01-15T10:05:37;95926.34;;;20.60;18.83
83664;BME280;73634;47.068;15.426;2024-01-15T10:08:02;95919.63;;;21.75;17.25
83664;BME280;73634;47.068;15.426;2024-01-15T10:10:29;95915.00;;;23.31;16.48
83664;BME280;73634;47.068;15.426;2024-01-15T10:12:55;95918.47;;;24.69;14.41
83664;BME280;73634;47.068;15.426;2024-01-15T10:15:23;95908.94;;;24.91;14.09
83664;BME280;73634;47.068;15.426;2024-01-15T10:20:21;95895.69;;;24.68;14.01
83664;BME280;73634;47.068;15.426;2024-01-15T10:22:47;95895.06;;;25.23;13.70
83664;BME280;73634;47.068;15.426;2024-01-15T10:25:13;95891.00;;;24.29;13.86
83664;BME280;73634;47.068;15.426;2024-01-15T10:27:40;95886.63;;;25.09;13.86
83664;BME280;73634;47.068;15.426;2024-01-15T10:30:07;95880.34;;;23.14;14.43
83664;BME280;73634;47.068;15.426;2024-01-15T10:32:32;95874.69;;;23.43;14.62
83664;BME280;73634;47.068;15.426;2024-01-15T10:34:58;95877.88;;;23.31;14.59
83664;BME280;73634;47.068;15.426;2024-01-15T10:37:24;95876.66;;;23.05;15.07
83664;BME280;73634;47.068;15.426;2024-01-15T10:39:49;95874.22;;;23.82;14.61
83664;BME280;73634;47.068;15.426;2024-01-15T10:44:51;95867.16;;;22.66;15.11
83664;BME280;73634;47.068;15.426;2024-01-15T10:47:16;95863.81;;;21.48;17.01
83664;BME280;73634;47.068;15.426;2024-01-15T10:49:44;95876.88;;;20.57;17.44
83664;BME280;73634;47.068;15.426;2024-01-15T10:52:10;95867.28;;;19.42;17.83
83664;BME280;73634;47.068;15.426;2024-01-15T10:54:37;95866.00;;;18.49;19.68
83664;BME280;73634;47.068;15.426;2024-01-15T10:57:02;95865.94;;;19.98;17.89
83664;BME280;73634;47.068;15.426;2024-01-15T10:59:28;95865.19;;;19.97;17.49
83664;BME280;73634;47.068;15.426;2024-01-15T11:01:54;95854.16;;;20.95;17.77
83664;BME280;73634;47.068;15.426;2024-01-15T11:04:23;95852.25;;;19.60;18.16
83664;BME280;73634;47.068;15.426;2024-01-15T11:06:53;95846.03;;;17.93;20.14
83664;BME280;73634;47.068;15.426;2024-01-15T11:11:03;95859.59;;;15.96;22.78
83664;BME280;73634;47.068;15.426;2024-01-15T11:16:01;95845.34;;;14.27;24.91
83664;BME280;73634;47.068;15.426;2024-01-15T11:18:34;95843.97;;;13.15;26.38
83664;BME280;73634;47.068;15.426;2024-01-15T11:23:45;95848.63;;;14.09;26.02
83664;BME280;73634;47.068;15.426;2024-01-15T11:26:35;95844.44;;;12.16;27.68
83664;BME280;73634;47.068;15.426;2024-01-15T11:29:09;95843.69;;;13.60;26.54
83664;BME280;73634;47.068;15.426;2024-01-15T11:35:59;95832.81;;;12.90;27.16
83664;BME280;73634;47.068;15.426;2024-01-15T11:38:28;95833.13;;;12.36;27.34
83664;BME280;73634;47.068;15.426;2024-01-15T11:40:54;95842.50;;;10.93;29.77
83664;BME280;73634;47.068;15.426;2024-01-15T11:43:19;95839.72;;;11.19;29.54
83664;BME280;73634;47.068;15.426;2024-01-15T11:45:51;95834.06;;;10.54;30.79
83664;BME280;73634;47.068;15.426;2024-01-15T11:48:17;95834.94;;;11.87;29.16
83664;BME280;73634;47.068;15.426;2024-01-15T11:50:47;95829.69;;;12.84;27.18
83664;BME280;73634;47.068;15.426;2024-01-15T11:55:51;95819.19;;;13.96;25.18
83664;BME280;73634;47.068;15.426;2024-01-15T12:00:25;95822.16;;;14.96;23.98
83664;BME280;73634;47.068;15.426;2024-01-15T12:02:51;95828.88;;;11.95;27.63
83664;BME280;73634;47.068;15.426;2024-01-15T12:05:18;95820.59;;;12.78;26.75
83664;BME280;73634;47.068;15.426;2024-01-15T12:07:45;95802.56;;;13.29;26.61
83664;BME280;73634;47.068;15.426;2024-01-15T12:10:12;95806.03;;;12.65;27.23
83664;BME280;73634;47.068;15.426;2024-01-15T12:15:28;95790.75;;;11.78;28.45
83664;BME280;73634;47.068;15.426;2024-01-15T12:17:56;95784.84;;;12.54;27.49
83664;BME280;73634;47.068;15.426;2024-01-15T12:20:25;95780.88;;;13.13;26.33
83664;BME280;73634;47.068;15.426;2024-01-15T12:24:07;95772.94;;;14.31;24.58
83664;BME280;73634;47.068;15.426;2024-01-15T12:26:33;95782.56;;;14.62;24.26
83664;BME280;73634;47.068;15.426;2024-01-15T12:29:01;95778.88;;;15.86;22.98
83664;BME280;73634;47.068;15.426;2024-01-15T12:31:27;95778.72;;;16.25;22.32
83664;BME280;73634;47.068;15.426;2024-01-15T12:33:53;95784.00;;;13.46;25.88
83664;BME280;73634;47.068;15.426;2024-01-15T12:36:21;95789.84;;;12.99;28.00
83664;BME280;73634;47.068;15.426;2024-01-15T12:38:47;95779.19;;;12.92;27.35
83664;BME280;73634;47.068;15.426;2024-01-15T12:41:12;95778.00;;;12.62;26.49
83664;BME280;73634;47.068;15.426;2024-01-15T12:43:38;95777.47;;;12.56;26.96
83664;BME280;73634;47.068;15.426;2024-01-15T12:48:03;95779.94;;;13.33;26.44
83664;BME280;73634;47.068;15.426;2024-01-15T12:50:29;95774.59;;;13.29;26.43
83664;BME280;73634;47.068;15.426;2024-01-15T12:52:54;95774.78;;;14.31;24.89
83664;BME280;73634;47.068;15.426;2024-01-15T12:55:20;95781.16;;;13.98;25.26
83664;BME280;73634;47.068;15.426;2024-01-15T12:57:45;95781.09;;;15.42;23.61
83664;BME280;73634;47.068;15.426;2024-01-15T13:00:11;95780.31;;;15.61;22.76
83664;BME280;73634;47.068;15.426;2024-01-15T13:02:40;95775.53;;;14.47;24.76
83664;BME280;73634;47.068;15.426;2024-01-15T13:05:08;95759.50;;;15.49;23.70
83664;BME280;73634;47.068;15.426;2024-01-15T13:07:34;95744.88;;;16.46;22.28
83664;BME280;73634;47.068;15.426;2024-01-15T13:10:00;95754.88;;;15.84;23.12
83664;BME280;73634;47.068;15.426;2024-01-15T13:12:39;95760.34;;;15.53;23.61
83664;BME280;73634;47.068;15.426;2024-01-15T13:17:55;95764.56;;;15.57;24.03
83664;BME280;73634;47.068;15.426;2024-01-15T13:20:24;95767.59;;;13.93;26.08
83664;BME280;73634;47.068;15.426;2024-01-15T13:22:53;95762.53;;;15.09;24.39
83664;BME280;73634;47.068;15.426;2024-01-15T13:25:30;95753.06;;;16.67;22.35
83664;BME280;73634;47.068;15.426;2024-01-15T13:28:04;95757.69;;;16.51;22.34
83664;BME280;73634;47.068;15.426;2024-01-15T13:30:30;95771.16;;;14.90;24.11
83664;BME280;73634;47.068;15.426;2024-01-15T13:32:56;95764.72;;;12.95;27.44
83664;BME280;73634;47.068;15.426;2024-01-15T13:35:22;95770.56;;;12.36;28.69
83664;BME280;73634;47.068;15.426;2024-01-15T13:40:32;95775.22;;;10.71;31.68
83664;BME280;73634;47.068;15.426;2024-01-15T13:42:58;95766.84;;;11.19;31.11
83664;BME280;73634;47.068;15.426;2024-01-15T13:45:23;95775.50;;;10.90;31.69
83664;BME280;73634;47.068;15.426;2024-01-15T13:47:49;95774.13;;;9.54;34.10
83664;BME280;73634;47.068;15.426;2024-01-15T13:50:14;95781.91;;;8.16;36.65
83664;BME280;73634;47.068;15.426;2024-01-15T13:52:40;95781.22;;;8.50;36.76
83664;BME280;73634;47.068;15.426;2024-01-15T13:55:05;95778.84;;;8.14;37.16
83664;BME280;73634;47.068;15.426;2024-01-15T13:57:31;95785.66;;;6.86;39.68
83664;BME280;73634;47.068;15.426;2024-01-15T13:59:56;95786.66;;;6.40;40.78
83664;BME280;73634;47.068;15.426;2024-01-15T14:05:43;95787.88;;;5.93;42.45
83664;BME280;73634;47.068;15.426;2024-01-15T14:08:09;95785.03;;;5.76;43.11
83664;BME280;73634;47.068;15.426;2024-01-15T14:10:34;95791.78;;;5.44;44.21
83664;BME280;73634;47.068;15.426;2024-01-15T14:12:59;95787.44;;;5.12;44.56
83664;BME280;73634;47.068;15.426;2024-01-15T14:15:25;95799.06;;;5.10;45.41
83664;BME280;73634;47.068;15.426;2024-01-15T14:17:52;95811.75;;;4.50;47.02
83664;BME280;73634;47.068;15.426;2024-01-15T14:20:37;95798.75;;;4.60;47.32